createdAt,value
2023-02-15T00:02:02.288Z,19.67
2023-02-15T00:04:47.903Z,20.75
2023-02-15T00:07:20.012Z,19.38
2023-02-15T00:09:47.653Z,19.42
2023-02-15T00:12:15.486Z,19.90
2023-02-15T00:14:43.199Z,19.20
2023-02-15T00:17:10.308Z,18.35
2023-02-15T00:19:37.495Z,19.05
2023-02-15T00:22:04.471Z,19.33
2023-02-15T00:24:31.319Z,18.52
2023-02-15T00:26:58.197Z,17.90
2023-02-15T00:29:25.838Z,18.48
2023-02-15T00:31:53.295Z,16.20
2023-02-15T00:34:23.083Z,17.55
2023-02-15T00:36:50.332Z,17.55
2023-02-15T00:39:18.319Z,16.30
2023-02-15T00:41:46.018Z,17.08
2023-02-15T00:44:14.052Z,17.70
2023-02-15T00:46:41.219Z,15.77
2023-02-15T00:49:08.158Z,16.83
2023-02-15T00:51:35.241Z,17.98
2023-02-15T00:54:02.259Z,17.45
2023-02-15T00:56:29.520Z,18.58
2023-02-15T00:58:56.864Z,18.98
2023-02-15T01:01:24.566Z,18.98
2023-02-15T01:03:51.917Z,19.73
2023-02-15T01:06:19.184Z,19.38
2023-02-15T01:31:11.404Z,19.08
2023-02-15T01:33:39.176Z,18.48
2023-02-15T01:36:06.596Z,19.17
2023-02-15T01:38:34.501Z,19.33
2023-02-15T01:41:20.199Z,19.45
2023-02-15T01:43:53.201Z,18.73
2023-02-15T01:46:24.407Z,19.15
2023-02-15T01:49:15.586Z,19.00
2023-02-15T01:51:44.577Z,19.65
2023-02-15T01:54:32.512Z,19.50
2023-02-15T01:57:10.028Z,19.60
2023-02-15T01:59:39.183Z,21.35
2023-02-15T02:02:08.939Z,19.95
2023-02-15T02:04:47.837Z,22.52
2023-02-15T02:07:18.377Z,20.55
2023-02-15T02:09:46.037Z,20.25
2023-02-15T02:12:13.456Z,20.20
2023-02-15T02:14:41.580Z,20.17
2023-02-15T02:17:37.451Z,21.95
2023-02-15T02:20:26.139Z,20.02
2023-02-15T02:23:31.331Z,21.80
2023-02-15T02:26:28.223Z,20.80
2023-02-15T02:29:25.443Z,19.33
2023-02-15T02:32:13.236Z,20.15
2023-02-15T02:34:47.579Z,20.23
2023-02-15T02:37:39.887Z,19.15
2023-02-15T02:40:27.244Z,19.08
2023-02-15T02:43:18.337Z,19.17
2023-02-15T02:45:59.437Z,18.83
2023-02-15T02:48:31.863Z,19.73
2023-02-15T02:50:58.773Z,19.58
2023-02-15T02:53:26.772Z,18.98
2023-02-15T02:55:59.841Z,19.58
2023-02-15T02:58:46.625Z,20.27
2023-02-15T03:01:25.740Z,20.02
2023-02-15T03:03:57.873Z,17.92
2023-02-15T03:06:42.434Z,19.55
2023-02-15T03:09:16.512Z,20.25
2023-02-15T03:11:45.765Z,19.85
2023-02-15T03:14:15.391Z,19.67
2023-02-15T03:16:45.110Z,21.15
2023-02-15T03:19:24.709Z,18.20
2023-02-15T03:22:04.955Z,19.85
2023-02-15T03:24:44.502Z,20.10
2023-02-15T03:27:19.087Z,20.15
2023-02-15T03:29:51.040Z,19.45
2023-02-15T03:32:19.050Z,20.15
2023-02-15T03:34:46.622Z,18.50
2023-02-15T03:37:42.898Z,19.35
2023-02-15T03:43:20.176Z,19.13
2023-02-15T03:45:58.232Z,19.58
2023-02-15T03:48:34.058Z,19.27
2023-02-15T03:51:24.864Z,19.98
2023-02-15T03:53:53.563Z,19.48
2023-02-15T03:56:20.452Z,17.75
2023-02-15T03:59:06.359Z,18.65
2023-02-15T04:01:57.926Z,18.70
2023-02-15T04:04:48.079Z,18.70
2023-02-15T04:07:15.009Z,20.08
2023-02-15T04:10:00.858Z,20.05
2023-02-15T04:12:27.621Z,19.65
2023-02-15T04:15:12.997Z,20.25
2023-02-15T04:17:40.158Z,19.38
2023-02-15T04:20:26.847Z,19.42
2023-02-15T04:23:12.177Z,18.95
2023-02-15T04:25:39.214Z,18.42
2023-02-15T04:28:06.098Z,19.00
2023-02-15T04:30:32.956Z,19.00
2023-02-15T04:32:59.930Z,18.63
2023-02-15T04:35:26.820Z,18.58
2023-02-15T04:37:53.755Z,19.17
2023-02-15T04:40:20.756Z,19.25
2023-02-15T04:42:50.703Z,19.95
2023-02-15T04:45:18.077Z,21.70
2023-02-15T04:47:45.191Z,17.95
2023-02-15T04:50:12.247Z,18.90
2023-02-15T04:52:39.314Z,18.60
2023-02-15T04:55:06.787Z,19.15
2023-02-15T04:57:33.657Z,22.98
2023-02-15T05:00:00.631Z,19.58
2023-02-15T05:02:27.614Z,22.05
2023-02-15T05:04:54.451Z,18.65
2023-02-15T05:07:21.528Z,21.95
2023-02-15T05:09:48.674Z,18.58
2023-02-15T05:12:15.584Z,17.20
2023-02-15T05:14:42.588Z,17.27
2023-02-15T05:17:09.413Z,16.75
2023-02-15T05:19:36.291Z,16.25
2023-02-15T05:22:03.320Z,17.73
2023-02-15T05:24:48.698Z,17.98
2023-02-15T05:27:34.107Z,17.25
2023-02-15T05:30:01.065Z,15.90
2023-02-15T05:32:28.002Z,15.95
2023-02-15T05:34:54.839Z,15.05
2023-02-15T05:37:21.767Z,15.90
2023-02-15T05:39:48.750Z,14.52
2023-02-15T05:42:15.595Z,15.95
2023-02-15T05:44:42.706Z,14.57
2023-02-15T05:47:09.648Z,14.50
2023-02-15T05:49:37.125Z,15.15
2023-02-15T05:52:04.993Z,15.52
2023-02-15T05:54:31.978Z,15.73
2023-02-15T05:56:58.902Z,16.73
2023-02-15T05:59:25.818Z,15.43
2023-02-15T06:01:52.703Z,16.08
2023-02-15T06:04:19.596Z,14.38
2023-02-15T06:06:46.541Z,15.45
2023-02-15T06:09:14.611Z,15.07
2023-02-15T06:11:41.905Z,17.35
2023-02-15T06:14:08.959Z,14.65
2023-02-15T06:16:35.923Z,15.05
2023-02-15T06:19:02.942Z,15.43
2023-02-15T06:21:31.087Z,15.40
2023-02-15T06:23:58.424Z,15.52
2023-02-15T06:26:25.411Z,13.57
2023-02-15T06:28:52.276Z,14.65
2023-02-15T06:31:19.322Z,14.23
2023-02-15T06:33:46.380Z,13.60
2023-02-15T06:36:13.766Z,13.65
2023-02-15T06:38:40.619Z,12.90
2023-02-15T06:41:07.671Z,12.75
2023-02-15T06:43:35.501Z,13.85
2023-02-15T06:46:02.898Z,13.27
2023-02-15T06:48:30.507Z,13.13
2023-02-15T06:50:57.645Z,12.48
2023-02-15T06:53:24.679Z,11.80
2023-02-15T06:55:51.730Z,12.35
2023-02-15T06:58:18.996Z,12.63
2023-02-15T07:00:46.236Z,13.95
2023-02-15T07:03:16.461Z,13.30
2023-02-15T07:05:44.991Z,12.95
2023-02-15T07:08:12.405Z,12.45
2023-02-15T07:10:39.644Z,12.25
2023-02-15T07:13:06.812Z,12.05
2023-02-15T07:15:33.766Z,11.57
2023-02-15T07:18:00.784Z,11.25
2023-02-15T07:20:27.819Z,11.32
2023-02-15T07:22:54.882Z,10.90
2023-02-15T07:25:22.183Z,11.45
2023-02-15T07:27:49.415Z,12.27
2023-02-15T07:30:18.095Z,11.43
2023-02-15T07:33:18.646Z,10.82
2023-02-15T07:35:53.033Z,11.52
2023-02-15T07:38:20.860Z,11.23
2023-02-15T07:40:48.483Z,10.32
2023-02-15T07:43:15.752Z,9.95
2023-02-15T07:45:42.892Z,10.93
2023-02-15T07:48:10.078Z,14.52
2023-02-15T07:50:37.300Z,12.63
2023-02-15T07:53:04.851Z,12.13
2023-02-15T07:55:32.471Z,11.15
2023-02-15T07:57:59.543Z,10.80
2023-02-15T08:00:26.704Z,11.23
2023-02-15T08:03:14.685Z,10.48
2023-02-15T08:05:43.855Z,11.30
2023-02-15T08:08:30.715Z,12.57
2023-02-15T08:13:55.089Z,10.10
2023-02-15T08:16:25.589Z,10.57
2023-02-15T08:18:53.668Z,10.77
2023-02-15T08:21:22.862Z,11.38
2023-02-15T08:23:50.894Z,10.27
2023-02-15T08:26:18.756Z,10.55
2023-02-15T08:28:47.424Z,11.02
2023-02-15T08:31:14.882Z,10.55
2023-02-15T08:33:43.607Z,10.85
2023-02-15T08:36:14.731Z,11.38
2023-02-15T08:38:42.867Z,10.85
2023-02-15T08:41:22.612Z,11.40
2023-02-15T08:43:52.547Z,11.25
2023-02-15T08:46:19.873Z,11.93
2023-02-15T08:48:47.241Z,12.32
2023-02-15T08:51:19.982Z,11.65
2023-02-15T08:53:50.239Z,11.55
2023-02-15T08:56:18.909Z,12.10
2023-02-15T08:58:46.211Z,12.48
2023-02-15T09:01:18.983Z,11.77
2023-02-15T09:03:47.836Z,10.95
2023-02-15T09:06:15.856Z,11.75
2023-02-15T09:08:42.869Z,12.10
2023-02-15T09:11:23.376Z,11.18
2023-02-15T09:13:56.060Z,10.80
2023-02-15T09:16:25.434Z,10.90
2023-02-15T09:18:52.971Z,11.70
2023-02-15T09:21:22.882Z,10.77
2023-02-15T09:23:52.127Z,11.75
2023-02-15T09:26:21.490Z,10.65
2023-02-15T09:28:52.459Z,11.85
2023-02-15T09:31:25.584Z,12.18
2023-02-15T09:33:53.092Z,12.57
2023-02-15T09:36:29.351Z,13.43
2023-02-15T09:38:59.064Z,13.48
2023-02-15T09:41:47.142Z,13.07
2023-02-15T09:44:38.426Z,13.25
2023-02-15T09:47:26.657Z,13.95
2023-02-15T09:50:07.091Z,12.70
2023-02-15T09:53:27.722Z,12.05
2023-02-15T09:56:38.445Z,12.20
2023-02-15T09:59:14.469Z,12.00
2023-02-15T10:01:59.240Z,12.82
2023-02-15T10:04:44.249Z,11.95
2023-02-15T10:07:44.662Z,12.13
2023-02-15T10:10:47.118Z,12.02
2023-02-15T10:13:26.882Z,11.55
2023-02-15T10:16:09.982Z,11.40
2023-02-15T10:19:04.830Z,11.63
2023-02-15T10:21:41.404Z,12.15
2023-02-15T10:24:32.179Z,12.63
2023-02-15T10:27:22.273Z,12.55
2023-02-15T10:30:04.325Z,12.48
2023-02-15T10:32:37.326Z,11.55
2023-02-15T10:35:21.386Z,12.57
2023-02-15T10:38:15.483Z,12.27
2023-02-15T10:41:07.427Z,12.15
2023-02-15T10:44:01.207Z,13.13
2023-02-15T10:46:44.842Z,12.98
2023-02-15T10:49:34.686Z,12.10
2023-02-15T10:52:27.424Z,12.43
2023-02-15T10:55:17.693Z,12.52
2023-02-15T10:58:06.955Z,13.07
2023-02-15T11:00:39.406Z,13.90
2023-02-15T11:03:15.485Z,14.38
2023-02-15T11:06:13.215Z,12.57
2023-02-15T11:08:49.773Z,12.40
2023-02-15T11:13:53.923Z,12.75
2023-02-15T11:16:32.767Z,13.05
2023-02-15T11:19:10.563Z,12.23
2023-02-15T11:21:59.975Z,12.82
2023-02-15T11:24:31.232Z,13.38
2023-02-15T11:27:17.763Z,12.90
2023-02-15T11:30:26.569Z,14.45
2023-02-15T11:33:02.989Z,13.43
2023-02-15T11:35:42.401Z,12.57
2023-02-15T11:38:23.898Z,12.93
2023-02-15T11:41:06.457Z,12.90
2023-02-15T11:43:36.350Z,13.02
2023-02-15T11:46:03.546Z,11.85
2023-02-15T11:48:32.919Z,12.10
2023-02-15T11:51:02.875Z,12.38
2023-02-15T11:53:36.921Z,12.00
2023-02-15T11:56:05.349Z,13.20
2023-02-15T11:58:59.522Z,12.63
2023-02-15T12:01:38.953Z,11.25
2023-02-15T12:04:32.119Z,11.35
2023-02-15T12:07:16.451Z,11.60
2023-02-15T12:10:02.310Z,12.77
2023-02-15T12:12:37.130Z,12.88
2023-02-15T12:15:07.155Z,11.85
2023-02-15T12:17:52.826Z,11.55
2023-02-15T12:20:19.927Z,11.40
2023-02-15T12:22:59.633Z,11.60
2023-02-15T12:25:52.185Z,11.80
2023-02-15T12:28:25.214Z,12.77
2023-02-15T12:30:57.854Z,12.55
2023-02-15T12:33:30.613Z,11.95
2023-02-15T12:36:10.985Z,11.73
2023-02-15T12:38:39.009Z,11.65
2023-02-15T12:41:24.724Z,11.63
2023-02-15T12:44:14.256Z,14.10
2023-02-15T12:46:41.570Z,11.98
2023-02-15T12:49:21.083Z,11.60
2023-02-15T12:51:53.000Z,12.13
2023-02-15T12:54:32.009Z,12.05
2023-02-15T12:57:00.050Z,11.15
2023-02-15T12:59:27.387Z,12.52
2023-02-15T13:01:55.091Z,11.65
2023-02-15T13:04:30.651Z,12.02
2023-02-15T13:07:03.228Z,11.82
2023-02-15T13:09:33.406Z,12.57
2023-02-15T13:12:24.405Z,12.43
2023-02-15T13:14:53.542Z,13.98
2023-02-15T13:17:30.503Z,13.68
2023-02-15T13:20:01.764Z,12.40
2023-02-15T13:22:35.596Z,12.60
2023-02-15T13:25:20.691Z,13.20
2023-02-15T13:27:53.895Z,13.25
2023-02-15T13:30:27.189Z,14.43
2023-02-15T13:33:02.948Z,13.45
2023-02-15T13:35:39.322Z,12.93
2023-02-15T13:38:30.897Z,13.30
2023-02-15T13:41:04.233Z,13.07
2023-02-15T13:43:58.124Z,15.05
2023-02-15T13:46:45.991Z,14.60
2023-02-15T13:49:43.414Z,13.13
2023-02-15T13:56:24.218Z,14.07
2023-02-15T13:58:54.109Z,13.98
2023-02-15T14:01:45.436Z,13.88
2023-02-15T14:04:42.178Z,14.18
2023-02-15T14:07:26.009Z,14.52
2023-02-15T14:10:14.702Z,14.70
2023-02-15T14:13:20.934Z,15.48
2023-02-15T14:16:13.845Z,15.63
2023-02-15T14:18:45.459Z,15.73
2023-02-15T14:21:35.831Z,15.60
2023-02-15T14:24:31.422Z,14.80
2023-02-15T14:27:07.265Z,15.55
2023-02-15T14:29:43.125Z,15.52
2023-02-15T14:32:14.797Z,14.55
2023-02-15T14:35:01.984Z,15.15
2023-02-15T14:37:49.282Z,14.95
2023-02-15T14:40:53.714Z,15.18
2023-02-15T14:44:05.286Z,15.20
2023-02-15T14:46:46.479Z,16.60
2023-02-15T14:49:28.918Z,16.08
2023-02-15T14:51:58.936Z,16.67
2023-02-15T14:54:25.715Z,17.25
2023-02-15T14:57:01.682Z,17.25
2023-02-15T14:59:38.607Z,16.55
2023-02-15T15:02:08.801Z,16.85
2023-02-15T15:04:39.776Z,16.63
2023-02-15T15:07:09.698Z,17.20
2023-02-15T15:09:40.766Z,16.88
2023-02-15T15:12:23.540Z,17.95
2023-02-15T15:14:52.047Z,18.02
2023-02-15T15:17:34.200Z,17.63
2023-02-15T15:20:09.273Z,17.60
2023-02-15T15:22:37.694Z,18.33
2023-02-15T15:25:09.422Z,17.33
2023-02-15T15:27:55.215Z,18.17
2023-02-15T15:30:22.102Z,18.55
2023-02-15T15:32:54.920Z,18.90
2023-02-15T15:35:59.529Z,18.75
2023-02-15T15:38:38.955Z,19.15
2023-02-15T15:41:38.538Z,19.83
2023-02-15T15:44:24.276Z,17.85
2023-02-15T15:47:23.755Z,17.88
2023-02-15T15:49:50.835Z,19.38
2023-02-15T15:52:22.335Z,19.02
2023-02-15T15:54:53.938Z,20.70
2023-02-15T15:57:31.401Z,20.17
2023-02-15T16:00:01.887Z,20.15
2023-02-15T16:02:29.309Z,19.42
2023-02-15T16:05:08.480Z,18.50
2023-02-15T16:07:35.570Z,18.10
2023-02-15T16:10:08.364Z,17.70
2023-02-15T16:12:38.083Z,17.27
2023-02-15T16:15:26.274Z,17.08
2023-02-15T16:17:58.585Z,16.92
2023-02-15T16:20:31.683Z,17.98
2023-02-15T16:23:11.266Z,17.65
2023-02-15T16:26:04.773Z,18.35
2023-02-15T16:28:32.144Z,17.85
2023-02-15T16:31:25.514Z,17.80
2023-02-15T16:33:56.526Z,18.13
2023-02-15T16:36:29.444Z,17.85
2023-02-15T16:38:56.502Z,17.88
2023-02-15T16:41:28.541Z,17.65
2023-02-15T16:43:59.839Z,20.20
2023-02-15T16:46:31.030Z,18.25
2023-02-15T16:49:03.290Z,19.25
2023-02-15T16:55:26.180Z,18.20
2023-02-15T16:58:00.016Z,17.95
2023-02-15T17:00:31.776Z,19.48
2023-02-15T17:03:03.172Z,19.63
2023-02-15T17:05:46.245Z,19.27
2023-02-15T17:08:18.157Z,22.67
2023-02-15T17:11:03.059Z,18.58
2023-02-15T17:13:30.937Z,17.60
2023-02-15T17:16:01.202Z,17.98
2023-02-15T17:18:30.174Z,19.17
2023-02-15T17:21:00.715Z,20.10
2023-02-15T17:23:43.554Z,20.05
2023-02-15T17:26:20.494Z,20.45
2023-02-15T17:28:52.050Z,21.02
2023-02-15T17:31:21.130Z,20.88
2023-02-15T17:33:48.599Z,20.40
2023-02-15T17:36:22.935Z,20.52
2023-02-15T17:38:58.858Z,23.15
2023-02-15T17:41:27.424Z,21.10
2023-02-15T17:43:54.364Z,20.75
2023-02-15T17:46:24.738Z,20.23
2023-02-15T17:48:56.226Z,21.92
2023-02-15T17:51:23.590Z,21.80
2023-02-15T17:54:09.215Z,21.77
2023-02-15T17:56:38.368Z,20.52
2023-02-15T17:59:10.352Z,21.15
2023-02-15T18:02:07.070Z,20.08
2023-02-15T18:04:55.705Z,20.92
2023-02-15T18:07:41.796Z,19.73
2023-02-15T18:10:36.190Z,20.73
2023-02-15T18:13:03.172Z,21.83
2023-02-15T18:15:30.285Z,24.13
2023-02-15T18:17:57.414Z,26.55
2023-02-15T18:20:43.579Z,25.88
2023-02-15T18:23:14.975Z,25.27
2023-02-15T18:25:43.211Z,24.98
2023-02-15T18:28:10.427Z,24.30
2023-02-15T18:30:41.252Z,25.25
2023-02-15T18:33:38.170Z,24.88
2023-02-15T18:36:08.174Z,24.67
2023-02-15T18:38:35.327Z,25.63
2023-02-15T18:41:04.116Z,26.08
2023-02-15T18:43:31.213Z,24.17
2023-02-15T18:45:58.036Z,26.42
2023-02-15T18:48:24.875Z,25.95
2023-02-15T18:50:51.847Z,25.17
2023-02-15T18:53:21.310Z,25.77
2023-02-15T18:55:49.682Z,25.80
2023-02-15T18:58:22.540Z,24.60
2023-02-15T19:00:50.850Z,24.70
2023-02-15T19:03:18.397Z,26.45
2023-02-15T19:05:46.930Z,26.98
2023-02-15T19:08:23.250Z,26.17
2023-02-15T19:10:51.672Z,27.33
2023-02-15T19:13:18.862Z,25.55
2023-02-15T19:15:45.763Z,26.40
2023-02-15T19:18:12.644Z,25.60
2023-02-15T19:20:45.588Z,24.75
2023-02-15T19:23:20.299Z,27.25
2023-02-15T19:25:49.024Z,26.15
2023-02-15T19:28:23.766Z,26.95
2023-02-15T19:30:50.663Z,25.98
2023-02-15T19:33:19.943Z,25.63
2023-02-15T19:35:52.498Z,25.08
2023-02-15T19:38:21.828Z,25.17
2023-02-15T19:40:48.851Z,25.65
2023-02-15T19:43:26.021Z,25.17
2023-02-15T19:45:53.777Z,24.17
2023-02-15T19:48:20.799Z,25.77
2023-02-15T19:50:48.554Z,25.02
2023-02-15T19:53:26.057Z,24.48
2023-02-15T19:55:53.977Z,24.42
2023-02-15T19:58:21.946Z,23.67
2023-02-15T20:00:51.171Z,24.17
2023-02-15T20:03:18.324Z,25.13
2023-02-15T20:05:45.888Z,24.17
2023-02-15T20:08:18.647Z,25.20
2023-02-15T20:10:46.111Z,25.23
2023-02-15T20:13:18.660Z,23.85
2023-02-15T20:15:46.488Z,23.20
2023-02-15T20:18:14.958Z,22.88
2023-02-15T20:20:49.062Z,22.55
2023-02-15T20:23:31.828Z,23.23
2023-02-15T20:26:01.292Z,23.13
2023-02-15T20:28:31.736Z,24.02
2023-02-15T20:30:59.711Z,23.33
2023-02-15T20:33:27.171Z,22.52
2023-02-15T20:35:54.762Z,22.92
2023-02-15T20:38:26.872Z,25.10
2023-02-15T20:41:13.872Z,21.63
2023-02-15T20:43:41.453Z,23.42
2023-02-15T20:46:08.766Z,24.55
2023-02-15T20:48:36.611Z,23.52
2023-02-15T20:51:04.364Z,23.23
2023-02-15T20:53:31.800Z,24.40
2023-02-15T20:55:59.103Z,23.67
2023-02-15T20:58:30.904Z,24.80
2023-02-15T21:00:59.274Z,22.75
2023-02-15T21:03:30.852Z,22.85
2023-02-15T21:05:58.730Z,25.27
2023-02-15T21:08:26.490Z,24.25
2023-02-15T21:10:54.537Z,24.05
2023-02-15T21:13:32.971Z,24.42
2023-02-15T21:16:00.905Z,23.23
2023-02-15T21:18:31.362Z,24.48
2023-02-15T21:21:03.816Z,24.30
2023-02-15T21:23:37.331Z,22.45
2023-02-15T21:26:05.758Z,23.70
2023-02-15T21:28:32.846Z,23.75
2023-02-15T21:31:00.104Z,22.70
2023-02-15T21:33:27.491Z,21.13
2023-02-15T21:35:57.148Z,23.05
2023-02-15T21:38:28.663Z,22.35
2023-02-15T21:41:15.792Z,22.88
2023-02-15T21:44:01.525Z,21.55
2023-02-15T21:46:47.505Z,21.25
2023-02-15T21:49:14.624Z,23.50
2023-02-15T21:52:10.722Z,20.05
2023-02-15T21:54:38.978Z,21.10
2023-02-15T21:57:06.042Z,21.20
2023-02-15T21:59:33.234Z,22.45
2023-02-15T22:02:00.329Z,22.58
2023-02-15T22:04:30.769Z,25.33
2023-02-15T22:06:57.904Z,22.52
2023-02-15T22:09:27.311Z,22.10
2023-02-15T22:11:54.988Z,21.90
2023-02-15T22:14:36.678Z,21.50
2023-02-15T22:17:13.577Z,21.42
2023-02-15T22:19:40.812Z,21.02
2023-02-15T22:22:08.177Z,20.60
2023-02-15T22:24:35.408Z,21.98
2023-02-15T22:27:02.707Z,20.02
2023-02-15T22:29:29.934Z,21.08
2023-02-15T22:31:57.023Z,20.35
2023-02-15T22:34:30.937Z,19.40
2023-02-15T22:36:59.297Z,20.00
2023-02-15T22:39:26.610Z,19.02
2023-02-15T22:41:54.628Z,19.48
2023-02-15T22:44:28.912Z,20.60
2023-02-15T22:46:56.464Z,19.95
2023-02-15T22:49:23.551Z,20.67
2023-02-15T22:51:51.562Z,19.00
2023-02-15T22:54:19.789Z,19.63
2023-02-15T22:56:52.908Z,19.42
2023-02-15T22:59:21.910Z,18.80
2023-02-15T23:01:49.509Z,18.30
2023-02-15T23:04:24.600Z,17.38
2023-02-15T23:06:53.555Z,17.45
2023-02-15T23:09:20.982Z,17.73
2023-02-15T23:11:51.435Z,16.90
2023-02-15T23:14:34.041Z,18.42
2023-02-15T23:17:02.151Z,15.57
2023-02-15T23:19:29.495Z,15.88
2023-02-15T23:21:56.534Z,16.30
2023-02-15T23:24:30.019Z,15.18
2023-02-15T23:27:20.589Z,15.65
2023-02-15T23:29:47.914Z,15.65
2023-02-15T23:32:15.774Z,16.23
2023-02-15T23:34:43.210Z,15.73
2023-02-15T23:37:14.482Z,16.02
2023-02-15T23:40:00.146Z,15.90
2023-02-15T23:42:30.666Z,15.25
2023-02-15T23:44:57.910Z,17.60
2023-02-15T23:47:47.874Z,15.90
2023-02-15T23:50:20.699Z,15.15
2023-02-15T23:52:47.954Z,14.98
2023-02-15T23:55:15.407Z,16.30
2023-02-15T23:57:43.760Z,15.65
